River & Lake Conditions

Stages:
  • Latest Observation

    Normal Stage: 9.35 ft2.8 m

    Flow: 124 kcfs
    Impacts: Above 8.7 to 9.2 feet, the Corps will raise the gates out of the water, allowing for open river conditions. This corresponds to a discharge of approximately 110,000 cfs.
  • Stages

Stage Date Flow
9.10 ft2.77 mForecast 08/31/2016 06:00 pm 120.000 kcfs
9.10 ft2.77 mForecast 08/31/2016 12:00 pm 120.000 kcfs
9.10 ft2.77 mForecast 08/31/2016 06:00 am 120.000 kcfs
9.10 ft2.77 mForecast 08/31/2016 12:00 am 120.000 kcfs
9.20 ft2.80 mForecast 08/30/2016 06:00 pm 122.000 kcfs
9.20 ft2.80 mForecast 08/30/2016 12:00 pm 122.000 kcfs
9.20 ft2.80 mForecast 08/30/2016 06:00 am 122.000 kcfs
9.20 ft2.80 mForecast 08/30/2016 12:00 am 122.000 kcfs
9.30 ft2.83 mForecast 08/29/2016 06:00 pm 123.000 kcfs
9.30 ft2.83 mForecast 08/29/2016 12:00 pm 123.000 kcfs
9.40 ft2.87 mForecast 08/29/2016 06:00 am 125.000 kcfs
9.40 ft2.87 mForecast 08/29/2016 12:00 am 125.000 kcfs
9.50 ft2.90 mForecast 08/28/2016 06:00 pm 126.000 kcfs
9.60 ft2.93 mForecast 08/28/2016 12:00 pm 128.000 kcfs
9.70 ft2.96 mForecast 08/28/2016 06:00 am 129.000 kcfs
9.90 ft3.02 mForecast 08/28/2016 12:00 am 133.000 kcfs
10.00 ft3.05 mForecast 08/27/2016 06:00 pm 134.000 kcfs
10.00 ft3.05 mForecast 08/27/2016 12:00 pm 134.000 kcfs
10.10 ft3.08 mForecast 08/27/2016 06:00 am 136.000 kcfs
10.10 ft3.08 mForecast 08/27/2016 12:00 am 136.000 kcfs
10.10 ft3.08 mForecast 08/26/2016 06:00 pm 136.000 kcfs
10.00 ft3.05 mForecast 08/26/2016 12:00 pm 134.000 kcfs
9.90 ft3.02 mForecast 08/26/2016 06:00 am 133.000 kcfs
9.80 ft2.99 mForecast 08/26/2016 12:00 am 131.000 kcfs
9.60 ft2.93 mForecast 08/25/2016 06:00 pm 128.000 kcfs
9.40 ft2.87 mForecast 08/25/2016 12:00 pm 125.000 kcfs
9.10 ft2.77 mForecast 08/25/2016 06:00 am 120.000 kcfs
8.80 ft2.68 mForecast 08/25/2016 12:00 am 115.000 kcfs
8.70 ft2.65 mForecast 08/24/2016 06:00 pm 114.000 kcfs
8.70 ft2.65 mForecast 08/24/2016 12:00 pm 114.000 kcfs
8.80 ft2.68 mForecast 08/24/2016 06:00 am 115.000 kcfs
9.35 ft2.68 m 08/24/2016 03:30 am 124.000 kcfs
9.35 ft2.68 m 08/24/2016 03:20 am 124.000 kcfs
9.35 ft2.68 m 08/24/2016 03:10 am 124.000 kcfs
9.35 ft2.68 m 08/24/2016 03:00 am 124.000 kcfs
9.35 ft2.68 m 08/24/2016 02:50 am 124.000 kcfs
9.35 ft2.68 m 08/24/2016 02:40 am 124.000 kcfs
9.34 ft2.68 m 08/24/2016 02:30 am 124.000 kcfs
9.32 ft2.68 m 08/24/2016 02:20 am 123.000 kcfs
9.34 ft2.68 m 08/24/2016 02:10 am 124.000 kcfs
9.28 ft2.68 m 08/24/2016 02:00 am 123.000 kcfs
9.37 ft2.68 m 08/24/2016 01:50 am 124.000 kcfs
9.32 ft2.68 m 08/24/2016 01:40 am 123.000 kcfs
9.31 ft2.68 m 08/24/2016 01:30 am 123.000 kcfs
9.32 ft2.68 m 08/24/2016 01:20 am 123.000 kcfs
9.31 ft2.68 m 08/24/2016 01:10 am 123.000 kcfs
9.30 ft2.68 m 08/24/2016 01:00 am 123.000 kcfs
9.32 ft2.68 m 08/24/2016 12:50 am 123.000 kcfs
9.32 ft2.68 m 08/24/2016 12:40 am 123.000 kcfs
9.31 ft2.68 m 08/24/2016 12:30 am 123.000 kcfs
9.31 ft2.68 m 08/24/2016 12:20 am 123.000 kcfs
9.30 ft2.68 m 08/24/2016 12:10 am 123.000 kcfs
9.30 ft2.68 m 08/24/2016 12:00 am 123.000 kcfs
9.05 ft2.68 m 08/23/2016 11:50 pm 119.000 kcfs
9.29 ft2.68 m 08/23/2016 11:40 pm 123.000 kcfs
9.23 ft2.68 m 08/23/2016 11:30 pm 122.000 kcfs
9.29 ft2.68 m 08/23/2016 11:20 pm 123.000 kcfs
9.28 ft2.68 m 08/23/2016 11:10 pm 123.000 kcfs
9.27 ft2.68 m 08/23/2016 11:00 pm 123.000 kcfs
9.28 ft2.68 m 08/23/2016 10:50 pm 123.000 kcfs
9.27 ft2.68 m 08/23/2016 10:40 pm 123.000 kcfs
9.22 ft2.68 m 08/23/2016 10:30 pm 122.000 kcfs